sensor_id;sensor_type;location;lat;lon;timestamp;temperature;humidity
23715;DHT22;12036;50.858;4.472;2024-02-14T00:02:24;9.10;99.90
23715;DHT22;12036;50.858;4.472;2024-02-14T00:04:54;9.20;99.90
23715;DHT22;12036;50.858;4.472;2024-02-14T00:07:20;9.20;99.90
23715;DHT22;12036;50.858;4.472;2024-02-14T00:09:47;9.10;99.90
23715;DHT22;12036;50.858;4.472;2024-02-14T00:12:13;9.10;99.90
23715;DHT22;12036;50.858;4.472;2024-02-14T00:14:38;9.10;99.90
23715;DHT22;12036;50.858;4.472;2024-02-14T00:17:04;9.20;99.90
23715;DHT22;12036;50.858;4.472;2024-02-14T00:19:31;9.20;99.90
23715;DHT22;12036;50.858;4.472;2024-02-14T00:21:56;9.30;99.90
23715;DHT22;12036;50.858;4.472;2024-02-14T00:24:22;9.30;99.90
23715;DHT22;12036;50.858;4.472;2024-02-14T00:26:50;9.30;99.90
23715;DHT22;12036;50.858;4.472;2024-02-14T00:29:15;9.30;99.90
23715;DHT22;12036;50.858;4.472;2024-02-14T00:31:41;9.30;99.90
23715;DHT22;12036;50.858;4.472;2024-02-14T00:34:09;9.40;99.90
23715;DHT22;12036;50.858;4.472;2024-02-14T00:36:35;9.40;99.90
23715;DHT22;12036;50.858;4.472;2024-02-14T00:39:00;9.40;99.90
23715;DHT22;12036;50.858;4.472;2024-02-14T00:41:26;9.40;99.90
23715;DHT22;12036;50.858;4.472;2024-02-14T00:43:55;9.40;99.90
23715;DHT22;12036;50.858;4.472;2024-02-14T00:46:21;9.50;99.90
23715;DHT22;12036;50.858;4.472;2024-02-14T00:48:47;9.40;99.90
23715;DHT22;12036;50.858;4.472;2024-02-14T00:51:13;9.50;99.90
23715;DHT22;12036;50.858;4.472;2024-02-14T00:53:38;9.50;99.90
23715;DHT22;12036;50.858;4.472;2024-02-14T00:56:04;9.50;99.90
23715;DHT22;12036;50.858;4.472;2024-02-14T00:58:31;9.60;99.90
23715;DHT22;12036;50.858;4.472;2024-02-14T01:00:57;9.70;99.90
23715;DHT22;12036;50.858;4.472;2024-02-14T01:03:23;9.70;99.90
23715;DHT22;12036;50.858;4.472;2024-02-14T01:05:48;9.80;99.90
23715;DHT22;12036;50.858;4.472;2024-02-14T01:08:15;9.80;99.90
23715;DHT22;12036;50.858;4.472;2024-02-14T01:10:40;9.70;99.90
23715;DHT22;12036;50.858;4.472;2024-02-14T01:13:06;9.70;99.90
23715;DHT22;12036;50.858;4.472;2024-02-14T01:15:32;9.70;99.90
23715;DHT22;12036;50.858;4.472;2024-02-14T01:17:59;9.70;99.90
23715;DHT22;12036;50.858;4.472;2024-02-14T01:20:25;9.70;99.90
23715;DHT22;12036;50.858;4.472;2024-02-14T01:22:51;9.70;99.90
23715;DHT22;12036;50.858;4.472;2024-02-14T01:25:17;9.70;99.90
23715;DHT22;12036;50.858;4.472;2024-02-14T01:27:42;9.70;99.90
23715;DHT22;12036;50.858;4.472;2024-02-14T01:30:09;9.70;99.90
23715;DHT22;12036;50.858;4.472;2024-02-14T01:32:35;9.60;99.90
23715;DHT22;12036;50.858;4.472;2024-02-14T01:35:00;9.60;99.90
23715;DHT22;12036;50.858;4.472;2024-02-14T01:37:26;9.50;99.90
23715;DHT22;12036;50.858;4.472;2024-02-14T01:39:54;9.50;99.90
23715;DHT22;12036;50.858;4.472;2024-02-14T01:42:20;9.50;99.90
23715;DHT22;12036;50.858;4.472;2024-02-14T01:44:46;9.60;99.90
23715;DHT22;12036;50.858;4.472;2024-02-14T01:47:11;9.60;99.90
23715;DHT22;12036;50.858;4.472;2024-02-14T01:49:38;9.60;99.90
23715;DHT22;12036;50.858;4.472;2024-02-14T01:52:05;9.60;99.90
23715;DHT22;12036;50.858;4.472;2024-02-14T01:54:31;9.70;99.90
23715;DHT22;12036;50.858;4.472;2024-02-14T01:56:57;9.70;99.90
23715;DHT22;12036;50.858;4.472;2024-02-14T01:59:24;9.70;99.90
23715;DHT22;12036;50.858;4.472;2024-02-14T02:01:51;9.70;99.90
23715;DHT22;12036;50.858;4.472;2024-02-14T02:04:19;9.70;99.90
23715;DHT22;12036;50.858;4.472;2024-02-14T02:06:46;9.70;99.90
23715;DHT22;12036;50.858;4.472;2024-02-14T02:09:11;9.70;99.90
23715;DHT22;12036;50.858;4.472;2024-02-14T02:11:50;9.60;99.90
23715;DHT22;12036;50.858;4.472;2024-02-14T02:14:16;9.50;99.90
23715;DHT22;12036;50.858;4.472;2024-02-14T02:16:43;9.50;99.90
23715;DHT22;12036;50.858;4.472;2024-02-14T02:19:09;9.50;99.90
23715;DHT22;12036;50.858;4.472;2024-02-14T02:21:35;9.50;99.90
23715;DHT22;12036;50.858;4.472;2024-02-14T02:24:02;9.50;99.90
23715;DHT22;12036;50.858;4.472;2024-02-14T02:26:27;9.50;99.90
23715;DHT22;12036;50.858;4.472;2024-02-14T02:28:53;9.50;99.90
23715;DHT22;12036;50.858;4.472;2024-02-14T02:31:19;9.50;99.90
23715;DHT22;12036;50.858;4.472;2024-02-14T02:33:46;9.50;99.90
23715;DHT22;12036;50.858;4.472;2024-02-14T02:36:11;9.50;99.90
23715;DHT22;12036;50.858;4.472;2024-02-14T02:38:37;9.50;99.90
23715;DHT22;12036;50.858;4.472;2024-02-14T02:41:04;9.60;99.90
23715;DHT22;12036;50.858;4.472;2024-02-14T02:43:32;9.60;99.90
23715;DHT22;12036;50.858;4.472;2024-02-14T02:45:58;9.60;99.90
23715;DHT22;12036;50.858;4.472;2024-02-14T02:48:24;9.70;99.90
23715;DHT22;12036;50.858;4.472;2024-02-14T02:50:50;9.70;99.90
23715;DHT22;12036;50.858;4.472;2024-02-14T02:53:16;9.70;99.90
23715;DHT22;12036;50.858;4.472;2024-02-14T02:55:42;9.80;99.90
23715;DHT22;12036;50.858;4.472;2024-02-14T02:58:08;9.80;99.90
23715;DHT22;12036;50.858;4.472;2024-02-14T03:00:34;9.80;99.90
23715;DHT22;12036;50.858;4.472;2024-02-14T03:03:00;9.80;99.90
23715;DHT22;12036;50.858;4.472;2024-02-14T03:05:26;9.80;99.90
23715;DHT22;12036;50.858;4.472;2024-02-14T03:07:52;9.90;99.90
23715;DHT22;12036;50.858;4.472;2024-02-14T03:10:18;9.90;99.90
23715;DHT22;12036;50.858;4.472;2024-02-14T03:12:46;9.90;99.90
23715;DHT22;12036;50.858;4.472;2024-02-14T03:15:12;10.00;99.90
23715;DHT22;12036;50.858;4.472;2024-02-14T03:17:39;9.90;99.90
23715;DHT22;12036;50.858;4.472;2024-02-14T03:20:06;9.90;99.90
23715;DHT22;12036;50.858;4.472;2024-02-14T03:22:36;10.00;99.90
23715;DHT22;12036;50.858;4.472;2024-02-14T03:25:02;9.90;99.90
23715;DHT22;12036;50.858;4.472;2024-02-14T03:27:28;9.90;99.90
23715;DHT22;12036;50.858;4.472;2024-02-14T03:29:56;9.80;99.90
23715;DHT22;12036;50.858;4.472;2024-02-14T03:32:23;9.80;99.90
23715;DHT22;12036;50.858;4.472;2024-02-14T03:34:49;9.80;99.90
23715;DHT22;12036;50.858;4.472;2024-02-14T03:37:15;9.80;99.90
23715;DHT22;12036;50.858;4.472;2024-02-14T03:39:40;9.80;99.90
23715;DHT22;12036;50.858;4.472;2024-02-14T03:42:06;9.80;99.90
23715;DHT22;12036;50.858;4.472;2024-02-14T03:44:33;9.80;99.90
23715;DHT22;12036;50.858;4.472;2024-02-14T03:46:59;9.80;99.90
23715;DHT22;12036;50.858;4.472;2024-02-14T03:49:25;9.90;99.90
23715;DHT22;12036;50.858;4.472;2024-02-14T03:51:51;9.90;99.90
23715;DHT22;12036;50.858;4.472;2024-02-14T03:54:20;9.90;99.90
23715;DHT22;12036;50.858;4.472;2024-02-14T03:56:46;9.90;99.90
23715;DHT22;12036;50.858;4.472;2024-02-14T03:59:11;9.90;99.90
23715;DHT22;12036;50.858;4.472;2024-02-14T04:01:37;10.00;99.90
23715;DHT22;12036;50.858;4.472;2024-02-14T04:04:03;9.90;99.90
23715;DHT22;12036;50.858;4.472;2024-02-14T04:06:29;9.90;99.90
23715;DHT22;12036;50.858;4.472;2024-02-14T04:09:00;9.90;99.90
23715;DHT22;12036;50.858;4.472;2024-02-14T04:11:26;9.90;99.90
23715;DHT22;12036;50.858;4.472;2024-02-14T04:13:51;10.00;99.90
23715;DHT22;12036;50.858;4.472;2024-02-14T04:16:20;10.00;99.90
23715;DHT22;12036;50.858;4.472;2024-02-14T04:18:47;9.90;99.90
23715;DHT22;12036;50.858;4.472;2024-02-14T04:21:12;10.00;99.90
23715;DHT22;12036;50.858;4.472;2024-02-14T04:23:38;10.00;99.90
23715;DHT22;12036;50.858;4.472;2024-02-14T04:26:05;10.00;99.90
23715;DHT22;12036;50.858;4.472;2024-02-14T04:28:31;10.00;99.90
23715;DHT22;12036;50.858;4.472;2024-02-14T04:30:57;9.90;99.90
23715;DHT22;12036;50.858;4.472;2024-02-14T04:33:23;9.90;99.90
23715;DHT22;12036;50.858;4.472;2024-02-14T04:35:49;9.90;99.90
23715;DHT22;12036;50.858;4.472;2024-02-14T04:38:15;9.90;99.90
23715;DHT22;12036;50.858;4.472;2024-02-14T04:40:41;10.00;99.90
23715;DHT22;12036;50.858;4.472;2024-02-14T04:43:07;10.00;99.90
23715;DHT22;12036;50.858;4.472;2024-02-14T04:45:33;9.90;99.90
23715;DHT22;12036;50.858;4.472;2024-02-14T04:47:58;9.90;99.90
23715;DHT22;12036;50.858;4.472;2024-02-14T04:50:24;10.00;99.90
23715;DHT22;12036;50.858;4.472;2024-02-14T04:52:50;10.00;99.90
23715;DHT22;12036;50.858;4.472;2024-02-14T04:55:15;10.00;99.90
23715;DHT22;12036;50.858;4.472;2024-02-14T04:57:41;10.10;99.90
23715;DHT22;12036;50.858;4.472;2024-02-14T05:00:07;10.10;99.90
23715;DHT22;12036;50.858;4.472;2024-02-14T05:02:34;10.10;99.90
23715;DHT22;12036;50.858;4.472;2024-02-14T05:05:00;10.10;99.90
23715;DHT22;12036;50.858;4.472;2024-02-14T05:07:27;10.20;99.90
23715;DHT22;12036;50.858;4.472;2024-02-14T05:09:52;10.20;99.90
23715;DHT22;12036;50.858;4.472;2024-02-14T05:12:20;10.20;99.90
23715;DHT22;12036;50.858;4.472;2024-02-14T05:14:46;10.20;99.90
23715;DHT22;12036;50.858;4.472;2024-02-14T05:17:13;10.10;99.90
23715;DHT22;12036;50.858;4.472;2024-02-14T05:19:38;10.20;99.90
23715;DHT22;12036;50.858;4.472;2024-02-14T05:22:06;10.20;99.90
23715;DHT22;12036;50.858;4.472;2024-02-14T05:24:32;10.20;99.90
23715;DHT22;12036;50.858;4.472;2024-02-14T05:26:57;10.20;99.90
23715;DHT22;12036;50.858;4.472;2024-02-14T05:29:23;10.20;99.90
23715;DHT22;12036;50.858;4.472;2024-02-14T05:31:49;10.10;99.90
23715;DHT22;12036;50.858;4.472;2024-02-14T05:34:14;10.20;99.90
23715;DHT22;12036;50.858;4.472;2024-02-14T05:36:40;10.20;99.90
23715;DHT22;12036;50.858;4.472;2024-02-14T05:39:08;10.20;99.90
23715;DHT22;12036;50.858;4.472;2024-02-14T05:41:34;10.20;99.90
23715;DHT22;12036;50.858;4.472;2024-02-14T05:44:00;10.30;99.90
23715;DHT22;12036;50.858;4.472;2024-02-14T05:46:25;10.30;99.90
23715;DHT22;12036;50.858;4.472;2024-02-14T05:48:51;10.20;99.90
23715;DHT22;12036;50.858;4.472;2024-02-14T05:51:20;10.30;99.90
23715;DHT22;12036;50.858;4.472;2024-02-14T05:53:46;10.20;99.90
23715;DHT22;12036;50.858;4.472;2024-02-14T05:56:12;10.30;99.90
23715;DHT22;12036;50.858;4.472;2024-02-14T05:58:37;10.30;99.90
23715;DHT22;12036;50.858;4.472;2024-02-14T06:01:03;10.30;99.90
23715;DHT22;12036;50.858;4.472;2024-02-14T06:03:28;10.30;99.90
23715;DHT22;12036;50.858;4.472;2024-02-14T06:05:54;10.30;99.90
23715;DHT22;12036;50.858;4.472;2024-02-14T06:08:20;10.30;99.90
23715;DHT22;12036;50.858;4.472;2024-02-14T06:10:46;10.40;99.90
23715;DHT22;12036;50.858;4.472;2024-02-14T06:13:13;10.40;99.90
23715;DHT22;12036;50.858;4.472;2024-02-14T06:15:38;10.40;99.90
23715;DHT22;12036;50.858;4.472;2024-02-14T06:18:04;10.30;99.90
23715;DHT22;12036;50.858;4.472;2024-02-14T06:20:30;10.30;99.90
23715;DHT22;12036;50.858;4.472;2024-02-14T06:22:56;10.30;99.90
23715;DHT22;12036;50.858;4.472;2024-02-14T06:25:21;10.30;99.90
23715;DHT22;12036;50.858;4.472;2024-02-14T06:27:47;10.30;99.90
23715;DHT22;12036;50.858;4.472;2024-02-14T06:30:13;10.40;99.90
23715;DHT22;12036;50.858;4.472;2024-02-14T06:32:38;10.40;99.90
23715;DHT22;12036;50.858;4.472;2024-02-14T06:35:04;10.40;99.90
23715;DHT22;12036;50.858;4.472;2024-02-14T06:37:30;10.40;99.90
23715;DHT22;12036;50.858;4.472;2024-02-14T06:39:55;10.30;99.90
23715;DHT22;12036;50.858;4.472;2024-02-14T06:42:21;10.30;99.90
23715;DHT22;12036;50.858;4.472;2024-02-14T06:44:47;10.40;99.90
23715;DHT22;12036;50.858;4.472;2024-02-14T06:47:12;10.40;99.90
23715;DHT22;12036;50.858;4.472;2024-02-14T06:49:39;10.40;99.90
23715;DHT22;12036;50.858;4.472;2024-02-14T06:52:04;10.40;99.90
23715;DHT22;12036;50.858;4.472;2024-02-14T06:54:30;10.40;99.90
23715;DHT22;12036;50.858;4.472;2024-02-14T06:56:56;10.50;99.90
23715;DHT22;12036;50.858;4.472;2024-02-14T06:59:21;10.50;99.90
23715;DHT22;12036;50.858;4.472;2024-02-14T07:01:48;10.50;99.90
23715;DHT22;12036;50.858;4.472;2024-02-14T07:04:13;10.50;99.90
23715;DHT22;12036;50.858;4.472;2024-02-14T07:06:39;10.50;99.90
23715;DHT22;12036;50.858;4.472;2024-02-14T07:09:05;10.50;99.90
23715;DHT22;12036;50.858;4.472;2024-02-14T07:11:31;10.50;99.90
23715;DHT22;12036;50.858;4.472;2024-02-14T07:13:57;10.60;99.90
23715;DHT22;12036;50.858;4.472;2024-02-14T07:16:22;10.60;99.90
23715;DHT22;12036;50.858;4.472;2024-02-14T07:18:49;10.60;99.90
23715;DHT22;12036;50.858;4.472;2024-02-14T07:21:15;10.60;99.90
23715;DHT22;12036;50.858;4.472;2024-02-14T07:23:40;10.70;99.90
23715;DHT22;12036;50.858;4.472;2024-02-14T07:26:06;10.80;99.90
23715;DHT22;12036;50.858;4.472;2024-02-14T07:28:31;10.80;99.90
23715;DHT22;12036;50.858;4.472;2024-02-14T07:30:57;10.80;99.90
23715;DHT22;12036;50.858;4.472;2024-02-14T07:33:23;10.80;99.90
23715;DHT22;12036;50.858;4.472;2024-02-14T07:35:49;10.90;99.90
23715;DHT22;12036;50.858;4.472;2024-02-14T07:38:15;10.90;99.90
23715;DHT22;12036;50.858;4.472;2024-02-14T07:40:42;10.80;99.90
23715;DHT22;12036;50.858;4.472;2024-02-14T07:43:07;10.90;99.90
23715;DHT22;12036;50.858;4.472;2024-02-14T07:45:33;10.90;99.90
23715;DHT22;12036;50.858;4.472;2024-02-14T07:47:59;10.90;99.90
23715;DHT22;12036;50.858;4.472;2024-02-14T07:50:24;10.90;99.90
23715;DHT22;12036;50.858;4.472;2024-02-14T07:52:50;11.00;99.90
23715;DHT22;12036;50.858;4.472;2024-02-14T07:55:16;11.00;99.90
23715;DHT22;12036;50.858;4.472;2024-02-14T07:57:42;11.10;99.90
23715;DHT22;12036;50.858;4.472;2024-02-14T08:00:08;11.10;99.90
23715;DHT22;12036;50.858;4.472;2024-02-14T08:02:35;11.10;99.90
23715;DHT22;12036;50.858;4.472;2024-02-14T08:05:02;11.10;99.90
23715;DHT22;12036;50.858;4.472;2024-02-14T08:07:30;11.20;99.90
23715;DHT22;12036;50.858;4.472;2024-02-14T08:09:56;11.20;99.90
23715;DHT22;12036;50.858;4.472;2024-02-14T08:12:22;11.30;99.90
23715;DHT22;12036;50.858;4.472;2024-02-14T08:14:48;11.30;99.90
23715;DHT22;12036;50.858;4.472;2024-02-14T08:17:14;11.30;99.90
23715;DHT22;12036;50.858;4.472;2024-02-14T08:19:39;11.40;99.90
23715;DHT22;12036;50.858;4.472;2024-02-14T08:22:05;11.30;99.90
23715;DHT22;12036;50.858;4.472;2024-02-14T08:24:32;11.30;99.90
23715;DHT22;12036;50.858;4.472;2024-02-14T08:26:58;11.20;99.90
23715;DHT22;12036;50.858;4.472;2024-02-14T08:29:23;11.20;99.90
23715;DHT22;12036;50.858;4.472;2024-02-14T08:31:49;11.10;99.90
23715;DHT22;12036;50.858;4.472;2024-02-14T08:34:15;11.00;99.90
23715;DHT22;12036;50.858;4.472;2024-02-14T08:36:42;11.00;99.90
23715;DHT22;12036;50.858;4.472;2024-02-14T08:39:08;11.10;99.90
23715;DHT22;12036;50.858;4.472;2024-02-14T08:41:38;11.10;99.90
23715;DHT22;12036;50.858;4.472;2024-02-14T08:44:05;11.10;99.90
23715;DHT22;12036;50.858;4.472;2024-02-14T08:46:31;11.10;99.90
23715;DHT22;12036;50.858;4.472;2024-02-14T08:48:59;11.20;99.90
23715;DHT22;12036;50.858;4.472;2024-02-14T08:51:25;11.20;99.90
23715;DHT22;12036;50.858;4.472;2024-02-14T08:53:50;11.20;99.90
23715;DHT22;12036;50.858;4.472;2024-02-14T08:56:20;11.10;99.90
23715;DHT22;12036;50.858;4.472;2024-02-14T08:58:47;11.10;99.90
23715;DHT22;12036;50.858;4.472;2024-02-14T09:01:13;11.20;99.90
23715;DHT22;12036;50.858;4.472;2024-02-14T09:03:39;11.20;99.90
23715;DHT22;12036;50.858;4.472;2024-02-14T09:06:05;11.20;99.90
23715;DHT22;12036;50.858;4.472;2024-02-14T09:08:31;11.30;99.90
23715;DHT22;12036;50.858;4.472;2024-02-14T09:10:57;11.30;99.90
23715;DHT22;12036;50.858;4.472;2024-02-14T09:13:24;11.40;99.90
23715;DHT22;12036;50.858;4.472;2024-02-14T09:15:50;11.30;99.90
23715;DHT22;12036;50.858;4.472;2024-02-14T09:18:18;11.30;99.90
23715;DHT22;12036;50.858;4.472;2024-02-14T09:20:44;11.50;99.90
23715;DHT22;12036;50.858;4.472;2024-02-14T09:23:12;11.40;99.90
23715;DHT22;12036;50.858;4.472;2024-02-14T09:25:39;11.40;99.90
23715;DHT22;12036;50.858;4.472;2024-02-14T09:28:05;11.40;99.90
23715;DHT22;12036;50.858;4.472;2024-02-14T09:30:32;11.40;99.90
23715;DHT22;12036;50.858;4.472;2024-02-14T09:32:58;11.40;99.90
23715;DHT22;12036;50.858;4.472;2024-02-14T09:35:24;11.40;99.90
23715;DHT22;12036;50.858;4.472;2024-02-14T09:37:51;11.50;99.90
23715;DHT22;12036;50.858;4.472;2024-02-14T09:40:17;11.50;99.90
23715;DHT22;12036;50.858;4.472;2024-02-14T09:42:53;11.50;99.90
23715;DHT22;12036;50.858;4.472;2024-02-14T09:45:19;11.50;99.90
23715;DHT22;12036;50.858;4.472;2024-02-14T09:47:45;11.40;99.90
23715;DHT22;12036;50.858;4.472;2024-02-14T09:50:12;11.40;99.90
23715;DHT22;12036;50.858;4.472;2024-02-14T09:52:38;11.40;99.90
23715;DHT22;12036;50.858;4.472;2024-02-14T09:55:05;11.40;99.90
23715;DHT22;12036;50.858;4.472;2024-02-14T09:57:32;11.50;99.90
23715;DHT22;12036;50.858;4.472;2024-02-14T10:00:00;11.50;99.90
23715;DHT22;12036;50.858;4.472;2024-02-14T10:02:31;11.50;99.90
23715;DHT22;12036;50.858;4.472;2024-02-14T10:04:56;11.60;99.90
23715;DHT22;12036;50.858;4.472;2024-02-14T10:07:22;11.60;99.90
23715;DHT22;12036;50.858;4.472;2024-02-14T10:09:48;11.70;99.90
23715;DHT22;12036;50.858;4.472;2024-02-14T10:12:14;11.70;99.90
23715;DHT22;12036;50.858;4.472;2024-02-14T10:14:40;11.70;99.90
23715;DHT22;12036;50.858;4.472;2024-02-14T10:17:06;11.70;99.90
23715;DHT22;12036;50.858;4.472;2024-02-14T10:19:33;11.70;99.90
23715;DHT22;12036;50.858;4.472;2024-02-14T10:22:00;11.70;99.90
23715;DHT22;12036;50.858;4.472;2024-02-14T10:24:28;11.70;99.90
23715;DHT22;12036;50.858;4.472;2024-02-14T10:26:54;11.80;99.90
23715;DHT22;12036;50.858;4.472;2024-02-14T10:29:23;11.90;99.90
23715;DHT22;12036;50.858;4.472;2024-02-14T10:31:49;12.00;99.90
23715;DHT22;12036;50.858;4.472;2024-02-14T10:34:15;12.00;99.90
23715;DHT22;12036;50.858;4.472;2024-02-14T10:36:43;12.00;99.90
23715;DHT22;12036;50.858;4.472;2024-02-14T10:39:11;12.00;99.90
23715;DHT22;12036;50.858;4.472;2024-02-14T10:41:37;11.90;99.90
23715;DHT22;12036;50.858;4.472;2024-02-14T10:44:05;12.00;99.90
23715;DHT22;12036;50.858;4.472;2024-02-14T10:46:36;11.90;99.90
23715;DHT22;12036;50.858;4.472;2024-02-14T10:49:04;11.90;99.90
23715;DHT22;12036;50.858;4.472;2024-02-14T10:51:34;12.00;99.90
23715;DHT22;12036;50.858;4.472;2024-02-14T10:54:06;11.90;99.90
23715;DHT22;12036;50.858;4.472;2024-02-14T10:56:36;11.90;99.90
23715;DHT22;12036;50.858;4.472;2024-02-14T10:59:04;11.90;99.90
23715;DHT22;12036;50.858;4.472;2024-02-14T11:01:31;11.90;99.90
23715;DHT22;12036;50.858;4.472;2024-02-14T11:04:01;11.90;99.90
23715;DHT22;12036;50.858;4.472;2024-02-14T11:06:28;11.80;99.90
23715;DHT22;12036;50.858;4.472;2024-02-14T11:09:03;11.80;99.90
23715;DHT22;12036;50.858;4.472;2024-02-14T11:11:33;11.80;99.90
23715;DHT22;12036;50.858;4.472;2024-02-14T11:13:59;11.90;99.90
23715;DHT22;12036;50.858;4.472;2024-02-14T11:16:28;11.80;99.90
23715;DHT22;12036;50.858;4.472;2024-02-14T11:19:09;11.90;99.90
23715;DHT22;12036;50.858;4.472;2024-02-14T11:21:46;11.90;99.90
23715;DHT22;12036;50.858;4.472;2024-02-14T11:24:14;12.00;99.90
23715;DHT22;12036;50.858;4.472;2024-02-14T11:26:49;11.90;99.90
23715;DHT22;12036;50.858;4.472;2024-02-14T11:29:17;12.00;99.90
23715;DHT22;12036;50.858;4.472;2024-02-14T11:31:46;12.00;99.90
23715;DHT22;12036;50.858;4.472;2024-02-14T11:34:14;12.00;99.90
23715;DHT22;12036;50.858;4.472;2024-02-14T11:36:44;11.90;99.90
23715;DHT22;12036;50.858;4.472;2024-02-14T11:39:10;12.00;99.90
23715;DHT22;12036;50.858;4.472;2024-02-14T11:41:38;12.00;99.90
23715;DHT22;12036;50.858;4.472;2024-02-14T11:44:06;12.10;99.90
23715;DHT22;12036;50.858;4.472;2024-02-14T11:46:33;12.00;99.90
23715;DHT22;12036;50.858;4.472;2024-02-14T11:49:00;12.00;99.90
23715;DHT22;12036;50.858;4.472;2024-02-14T11:51:31;12.00;99.90
23715;DHT22;12036;50.858;4.472;2024-02-14T11:53:58;11.90;99.90
23715;DHT22;12036;50.858;4.472;2024-02-14T11:56:35;11.90;99.90
23715;DHT22;12036;50.858;4.472;2024-02-14T11:59:02;11.90;99.90
23715;DHT22;12036;50.858;4.472;2024-02-14T12:01:32;12.00;99.90
23715;DHT22;12036;50.858;4.472;2024-02-14T12:04:02;12.10;99.90
23715;DHT22;12036;50.858;4.472;2024-02-14T12:06:31;12.00;99.90
23715;DHT22;12036;50.858;4.472;2024-02-14T12:08:58;12.00;99.90
23715;DHT22;12036;50.858;4.472;2024-02-14T12:11:38;12.10;99.90
23715;DHT22;12036;50.858;4.472;2024-02-14T12:14:09;12.10;99.90
23715;DHT22;12036;50.858;4.472;2024-02-14T12:16:38;12.20;99.90
23715;DHT22;12036;50.858;4.472;2024-02-14T12:19:16;12.20;99.90
23715;DHT22;12036;50.858;4.472;2024-02-14T12:21:42;12.20;99.90
23715;DHT22;12036;50.858;4.472;2024-02-14T12:24:11;12.10;99.90
23715;DHT22;12036;50.858;4.472;2024-02-14T12:26:39;12.20;99.90
23715;DHT22;12036;50.858;4.472;2024-02-14T12:29:06;12.30;99.90
23715;DHT22;12036;50.858;4.472;2024-02-14T12:31:33;12.40;99.90
23715;DHT22;12036;50.858;4.472;2024-02-14T12:34:00;12.40;99.90
23715;DHT22;12036;50.858;4.472;2024-02-14T12:36:28;12.50;99.90
23715;DHT22;12036;50.858;4.472;2024-02-14T12:38:54;12.50;99.90
23715;DHT22;12036;50.858;4.472;2024-02-14T12:41:20;12.60;99.90
23715;DHT22;12036;50.858;4.472;2024-02-14T12:43:47;12.60;99.90
23715;DHT22;12036;50.858;4.472;2024-02-14T12:46:13;12.40;99.90
23715;DHT22;12036;50.858;4.472;2024-02-14T12:48:39;12.60;99.90
23715;DHT22;12036;50.858;4.472;2024-02-14T12:51:05;12.70;99.90
23715;DHT22;12036;50.858;4.472;2024-02-14T12:53:33;12.70;99.90
23715;DHT22;12036;50.858;4.472;2024-02-14T12:55:59;12.70;99.90
23715;DHT22;12036;50.858;4.472;2024-02-14T12:58:24;12.90;99.90
23715;DHT22;12036;50.858;4.472;2024-02-14T13:00:50;12.80;99.90
23715;DHT22;12036;50.858;4.472;2024-02-14T13:03:16;12.80;99.90
23715;DHT22;12036;50.858;4.472;2024-02-14T13:05:41;12.90;99.90
23715;DHT22;12036;50.858;4.472;2024-02-14T13:08:07;12.90;99.90
23715;DHT22;12036;50.858;4.472;2024-02-14T13:10:36;12.80;99.90
23715;DHT22;12036;50.858;4.472;2024-02-14T13:13:01;12.80;99.90
23715;DHT22;12036;50.858;4.472;2024-02-14T13:15:27;12.80;99.90
23715;DHT22;12036;50.858;4.472;2024-02-14T13:17:53;12.80;99.90
23715;DHT22;12036;50.858;4.472;2024-02-14T13:20:19;12.70;99.90
23715;DHT22;12036;50.858;4.472;2024-02-14T13:22:45;12.70;99.90
23715;DHT22;12036;50.858;4.472;2024-02-14T13:25:11;12.70;99.90
23715;DHT22;12036;50.858;4.472;2024-02-14T13:27:37;12.70;99.90
23715;DHT22;12036;50.858;4.472;2024-02-14T13:30:04;12.70;99.90
23715;DHT22;12036;50.858;4.472;2024-02-14T13:32:30;12.80;99.90
23715;DHT22;12036;50.858;4.472;2024-02-14T13:34:55;12.70;99.90
23715;DHT22;12036;50.858;4.472;2024-02-14T13:37:22;12.70;99.90
23715;DHT22;12036;50.858;4.472;2024-02-14T13:39:48;12.60;99.90
23715;DHT22;12036;50.858;4.472;2024-02-14T13:42:14;12.70;99.90
23715;DHT22;12036;50.858;4.472;2024-02-14T13:44:40;12.60;99.90
23715;DHT22;12036;50.858;4.472;2024-02-14T13:47:05;12.60;99.90
23715;DHT22;12036;50.858;4.472;2024-02-14T13:49:32;12.60;99.90
23715;DHT22;12036;50.858;4.472;2024-02-14T13:51:57;12.50;99.90
23715;DHT22;12036;50.858;4.472;2024-02-14T13:54:24;12.50;99.90
23715;DHT22;12036;50.858;4.472;2024-02-14T13:56:50;12.60;99.90
23715;DHT22;12036;50.858;4.472;2024-02-14T13:59:16;12.60;99.90
23715;DHT22;12036;50.858;4.472;2024-02-14T14:01:42;12.60;99.90
23715;DHT22;12036;50.858;4.472;2024-02-14T14:04:07;12.60;99.90
23715;DHT22;12036;50.858;4.472;2024-02-14T14:06:33;12.60;99.90
23715;DHT22;12036;50.858;4.472;2024-02-14T14:09:00;12.70;99.90
23715;DHT22;12036;50.858;4.472;2024-02-14T14:11:28;12.80;99.90
23715;DHT22;12036;50.858;4.472;2024-02-14T14:13:53;12.80;99.90
23715;DHT22;12036;50.858;4.472;2024-02-14T14:16:19;12.80;99.90
23715;DHT22;12036;50.858;4.472;2024-02-14T14:18:48;12.70;99.90
23715;DHT22;12036;50.858;4.472;2024-02-14T14:21:14;12.80;99.90
23715;DHT22;12036;50.858;4.472;2024-02-14T14:23:40;12.80;99.90
23715;DHT22;12036;50.858;4.472;2024-02-14T14:26:06;12.80;99.90
23715;DHT22;12036;50.858;4.472;2024-02-14T14:28:32;12.80;99.90
23715;DHT22;12036;50.858;4.472;2024-02-14T14:30:57;12.80;99.90
23715;DHT22;12036;50.858;4.472;2024-02-14T14:33:25;12.80;99.90
23715;DHT22;12036;50.858;4.472;2024-02-14T14:35:51;13.00;99.90
23715;DHT22;12036;50.858;4.472;2024-02-14T14:38:19;12.80;99.90
23715;DHT22;12036;50.858;4.472;2024-02-14T14:40:45;12.80;99.90
23715;DHT22;12036;50.858;4.472;2024-02-14T14:43:16;12.70;99.90
23715;DHT22;12036;50.858;4.472;2024-02-14T14:45:44;12.70;99.90
23715;DHT22;12036;50.858;4.472;2024-02-14T14:48:10;12.70;99.90
23715;DHT22;12036;50.858;4.472;2024-02-14T14:50:36;12.70;99.90
23715;DHT22;12036;50.858;4.472;2024-02-14T14:53:02;12.80;99.90
23715;DHT22;12036;50.858;4.472;2024-02-14T14:55:57;12.70;99.90
23715;DHT22;12036;50.858;4.472;2024-02-14T14:58:23;12.70;99.90
23715;DHT22;12036;50.858;4.472;2024-02-14T15:00:56;12.70;99.90
23715;DHT22;12036;50.858;4.472;2024-02-14T15:03:24;12.80;99.90
23715;DHT22;12036;50.858;4.472;2024-02-14T15:05:50;12.70;99.90
23715;DHT22;12036;50.858;4.472;2024-02-14T15:08:16;12.80;99.90
23715;DHT22;12036;50.858;4.472;2024-02-14T15:10:53;12.80;99.90
23715;DHT22;12036;50.858;4.472;2024-02-14T15:13:23;12.80;99.90
23715;DHT22;12036;50.858;4.472;2024-02-14T15:15:49;12.80;99.90
23715;DHT22;12036;50.858;4.472;2024-02-14T15:18:15;12.90;99.90
23715;DHT22;12036;50.858;4.472;2024-02-14T15:20:40;12.90;99.90
23715;DHT22;12036;50.858;4.472;2024-02-14T15:23:07;12.90;99.90
23715;DHT22;12036;50.858;4.472;2024-02-14T15:25:33;12.80;99.90
23715;DHT22;12036;50.858;4.472;2024-02-14T15:28:06;12.70;99.90
23715;DHT22;12036;50.858;4.472;2024-02-14T15:30:32;12.70;99.90
23715;DHT22;12036;50.858;4.472;2024-02-14T15:33:16;12.70;99.90